Terminal Aerodrome Forecast
Issued by NWS

Home | Current Version | Previous Version | Text Only | Print | Product List | Glossary Off
Versions: 1 2 3 4 5 6 7 8 9 10 11 12 13 14 15

000
FTUS43 KBIS 180500
TAFMOT
TAF
KMOT 180539Z 1806/1906 12011KT P6SM BKN050 OVC070
     FM181400 12020G28KT P6SM BKN090 OVC120
     FM181700 13024G32KT P6SM BKN100 OVC120
     FM182200 12019G26KT P6SM VCSH BKN070 OVC110
     FM190100 11011KT P6SM -RA BKN045 OVC070
     FM190400 VRB05KT P6SM VCSH BKN050 BKN080=

USA.gov is the U.S. government's official web portal to all federal, state and local government web resources and services.